Terminal Aerodrome Forecast
Issued by NWS

Home | Current Version | Previous Version | Text Only | Print | Product List | Glossary On
Versions: 1 2 3 4 5 6 7 8 9 10 11 12 13 14 15 16
034
FTUS43 KDVN 140534
TAFCID
TAF
KCID 140534Z 1406/1506 15009KT P6SM OVC070
     FM140800 14012KT 4SM -SN BR OVC035
      TEMPO 1409/1412 1 1/2SM -SN BR OVC015
     FM141200 14015G22KT 3/4SM -SN BR OVC010
     FM141700 15012KT 2SM -SN BR OVC015
     FM142000 13007KT 5SM -SN BR OVC020
     FM142300 15006KT 6SM BR OVC015=

USA.gov is the U.S. government's official web portal to all federal, state and local government web resources and services.